sensor_id;sensor_type;location;lat;lon;timestamp;P1;durP1;ratioP1;P2;durP2;ratioP2
16890;SDS011;8562;52.246;20.966;2023-04-29T00:01:54;12.23;;;6.03;;
16890;SDS011;8562;52.246;20.966;2023-04-29T00:04:23;9.00;;;6.13;;
16890;SDS011;8562;52.246;20.966;2023-04-29T00:06:48;10.63;;;6.77;;
16890;SDS011;8562;52.246;20.966;2023-04-29T00:09:14;8.90;;;6.97;;
16890;SDS011;8562;52.246;20.966;2023-04-29T00:11:39;8.67;;;6.07;;
16890;SDS011;8562;52.246;20.966;2023-04-29T00:14:04;8.17;;;6.23;;
16890;SDS011;8562;52.246;20.966;2023-04-29T00:16:30;9.30;;;6.90;;
16890;SDS011;8562;52.246;20.966;2023-04-29T00:18:55;9.83;;;6.63;;
16890;SDS011;8562;52.246;20.966;2023-04-29T00:21:21;9.63;;;6.43;;
16890;SDS011;8562;52.246;20.966;2023-04-29T00:23:46;12.53;;;6.50;;
16890;SDS011;8562;52.246;20.966;2023-04-29T00:26:12;11.07;;;6.87;;
16890;SDS011;8562;52.246;20.966;2023-04-29T00:28:40;8.53;;;6.03;;
16890;SDS011;8562;52.246;20.966;2023-04-29T00:31:05;15.23;;;7.33;;
16890;SDS011;8562;52.246;20.966;2023-04-29T00:33:30;12.07;;;6.57;;
16890;SDS011;8562;52.246;20.966;2023-04-29T00:35:56;17.00;;;8.00;;
16890;SDS011;8562;52.246;20.966;2023-04-29T00:38:21;9.00;;;6.10;;
16890;SDS011;8562;52.246;20.966;2023-04-29T00:40:46;8.93;;;7.23;;
16890;SDS011;8562;52.246;20.966;2023-04-29T00:43:12;11.00;;;6.77;;
16890;SDS011;8562;52.246;20.966;2023-04-29T00:45:37;9.77;;;6.87;;
16890;SDS011;8562;52.246;20.966;2023-04-29T00:48:03;9.47;;;6.93;;
16890;SDS011;8562;52.246;20.966;2023-04-29T00:50:28;9.77;;;6.87;;
16890;SDS011;8562;52.246;20.966;2023-04-29T00:52:54;10.73;;;6.70;;
16890;SDS011;8562;52.246;20.966;2023-04-29T00:55:20;11.67;;;7.87;;
16890;SDS011;8562;52.246;20.966;2023-04-29T00:57:46;10.47;;;6.73;;
16890;SDS011;8562;52.246;20.966;2023-04-29T01:00:12;10.53;;;7.03;;
16890;SDS011;8562;52.246;20.966;2023-04-29T01:02:39;12.13;;;7.07;;
16890;SDS011;8562;52.246;20.966;2023-04-29T01:07:44;8.47;;;6.07;;
16890;SDS011;8562;52.246;20.966;2023-04-29T01:12:45;8.90;;;6.40;;
16890;SDS011;8562;52.246;20.966;2023-04-29T01:15:22;8.93;;;6.37;;
16890;SDS011;8562;52.246;20.966;2023-04-29T01:17:50;10.33;;;7.13;;
16890;SDS011;8562;52.246;20.966;2023-04-29T01:20:19;8.30;;;6.20;;
16890;SDS011;8562;52.246;20.966;2023-04-29T01:22:46;8.93;;;5.80;;
16890;SDS011;8562;52.246;20.966;2023-04-29T01:25:12;10.80;;;6.70;;
16890;SDS011;8562;52.246;20.966;2023-04-29T01:35:39;9.23;;;6.00;;
16890;SDS011;8562;52.246;20.966;2023-04-29T01:38:13;10.47;;;6.73;;
16890;SDS011;8562;52.246;20.966;2023-04-29T01:40:52;6.90;;;4.87;;
16890;SDS011;8562;52.246;20.966;2023-04-29T01:43:23;10.77;;;6.27;;
16890;SDS011;8562;52.246;20.966;2023-04-29T01:45:53;9.03;;;5.40;;
16890;SDS011;8562;52.246;20.966;2023-04-29T01:48:20;6.00;;;4.97;;
16890;SDS011;8562;52.246;20.966;2023-04-29T01:50:46;9.80;;;5.90;;
16890;SDS011;8562;52.246;20.966;2023-04-29T01:53:14;7.97;;;6.00;;
16890;SDS011;8562;52.246;20.966;2023-04-29T01:55:40;10.83;;;5.57;;
16890;SDS011;8562;52.246;20.966;2023-04-29T01:58:15;9.73;;;7.00;;
16890;SDS011;8562;52.246;20.966;2023-04-29T02:01:06;8.83;;;6.63;;
16890;SDS011;8562;52.246;20.966;2023-04-29T02:03:34;11.73;;;6.07;;
16890;SDS011;8562;52.246;20.966;2023-04-29T02:06:01;11.20;;;5.90;;
16890;SDS011;8562;52.246;20.966;2023-04-29T02:08:26;14.77;;;7.07;;
16890;SDS011;8562;52.246;20.966;2023-04-29T02:10:54;8.37;;;5.37;;
16890;SDS011;8562;52.246;20.966;2023-04-29T02:13:31;6.00;;;5.40;;
16890;SDS011;8562;52.246;20.966;2023-04-29T02:15:56;7.57;;;5.70;;
16890;SDS011;8562;52.246;20.966;2023-04-29T02:18:22;8.77;;;5.97;;
16890;SDS011;8562;52.246;20.966;2023-04-29T02:20:47;9.10;;;5.57;;
16890;SDS011;8562;52.246;20.966;2023-04-29T02:23:14;9.17;;;6.20;;
16890;SDS011;8562;52.246;20.966;2023-04-29T02:25:39;7.17;;;5.50;;
16890;SDS011;8562;52.246;20.966;2023-04-29T02:28:05;7.43;;;5.43;;
16890;SDS011;8562;52.246;20.966;2023-04-29T02:30:30;10.00;;;5.60;;
16890;SDS011;8562;52.246;20.966;2023-04-29T02:32:56;8.77;;;5.70;;
16890;SDS011;8562;52.246;20.966;2023-04-29T02:35:21;8.53;;;5.13;;
16890;SDS011;8562;52.246;20.966;2023-04-29T02:37:47;8.30;;;6.07;;
16890;SDS011;8562;52.246;20.966;2023-04-29T02:40:12;9.90;;;6.17;;
16890;SDS011;8562;52.246;20.966;2023-04-29T02:42:38;7.23;;;4.80;;
16890;SDS011;8562;52.246;20.966;2023-04-29T02:45:04;9.57;;;5.67;;
16890;SDS011;8562;52.246;20.966;2023-04-29T02:47:29;7.03;;;5.53;;
16890;SDS011;8562;52.246;20.966;2023-04-29T02:49:55;8.30;;;5.83;;
16890;SDS011;8562;52.246;20.966;2023-04-29T02:52:20;6.70;;;5.07;;
16890;SDS011;8562;52.246;20.966;2023-04-29T02:54:46;10.77;;;4.97;;
16890;SDS011;8562;52.246;20.966;2023-04-29T02:57:12;6.70;;;5.00;;
16890;SDS011;8562;52.246;20.966;2023-04-29T02:59:37;14.37;;;6.53;;
16890;SDS011;8562;52.246;20.966;2023-04-29T03:02:02;6.73;;;4.97;;
16890;SDS011;8562;52.246;20.966;2023-04-29T03:04:28;10.20;;;4.67;;
16890;SDS011;8562;52.246;20.966;2023-04-29T03:06:54;5.43;;;4.93;;
16890;SDS011;8562;52.246;20.966;2023-04-29T03:09:20;7.07;;;4.60;;
16890;SDS011;8562;52.246;20.966;2023-04-29T03:11:46;6.93;;;5.33;;
16890;SDS011;8562;52.246;20.966;2023-04-29T03:14:11;9.60;;;5.30;;
16890;SDS011;8562;52.246;20.966;2023-04-29T03:16:37;6.37;;;4.77;;
16890;SDS011;8562;52.246;20.966;2023-04-29T03:19:02;6.57;;;4.90;;
16890;SDS011;8562;52.246;20.966;2023-04-29T03:21:27;10.07;;;5.50;;
16890;SDS011;8562;52.246;20.966;2023-04-29T03:23:53;6.77;;;4.97;;
16890;SDS011;8562;52.246;20.966;2023-04-29T03:26:26;7.03;;;4.87;;
16890;SDS011;8562;52.246;20.966;2023-04-29T03:28:51;6.80;;;5.57;;
16890;SDS011;8562;52.246;20.966;2023-04-29T03:31:17;8.57;;;5.50;;
16890;SDS011;8562;52.246;20.966;2023-04-29T03:33:44;7.83;;;5.53;;
16890;SDS011;8562;52.246;20.966;2023-04-29T03:36:10;9.80;;;4.77;;
16890;SDS011;8562;52.246;20.966;2023-04-29T03:38:49;8.33;;;5.60;;
16890;SDS011;8562;52.246;20.966;2023-04-29T03:41:14;6.43;;;5.47;;
16890;SDS011;8562;52.246;20.966;2023-04-29T03:43:40;5.57;;;4.50;;
16890;SDS011;8562;52.246;20.966;2023-04-29T03:46:05;6.10;;;5.50;;
16890;SDS011;8562;52.246;20.966;2023-04-29T03:48:30;4.93;;;4.40;;
16890;SDS011;8562;52.246;20.966;2023-04-29T03:50:56;7.07;;;4.70;;
16890;SDS011;8562;52.246;20.966;2023-04-29T03:53:21;7.63;;;4.10;;
16890;SDS011;8562;52.246;20.966;2023-04-29T03:55:47;7.60;;;5.10;;
16890;SDS011;8562;52.246;20.966;2023-04-29T03:58:14;5.83;;;4.33;;
16890;SDS011;8562;52.246;20.966;2023-04-29T04:00:40;6.50;;;4.90;;
16890;SDS011;8562;52.246;20.966;2023-04-29T04:03:12;5.80;;;4.73;;
16890;SDS011;8562;52.246;20.966;2023-04-29T04:05:37;8.57;;;4.87;;
16890;SDS011;8562;52.246;20.966;2023-04-29T04:08:07;7.03;;;4.07;;
16890;SDS011;8562;52.246;20.966;2023-04-29T04:10:32;6.80;;;4.63;;
16890;SDS011;8562;52.246;20.966;2023-04-29T04:13:01;8.17;;;4.83;;
16890;SDS011;8562;52.246;20.966;2023-04-29T04:15:26;5.70;;;4.40;;
16890;SDS011;8562;52.246;20.966;2023-04-29T04:17:52;6.93;;;4.70;;
16890;SDS011;8562;52.246;20.966;2023-04-29T04:20:17;6.03;;;4.70;;
16890;SDS011;8562;52.246;20.966;2023-04-29T04:22:44;6.30;;;4.50;;
16890;SDS011;8562;52.246;20.966;2023-04-29T04:25:17;10.80;;;5.13;;
16890;SDS011;8562;52.246;20.966;2023-04-29T04:27:42;7.57;;;3.93;;
16890;SDS011;8562;52.246;20.966;2023-04-29T04:30:13;7.70;;;4.30;;
16890;SDS011;8562;52.246;20.966;2023-04-29T04:32:39;13.57;;;4.63;;
16890;SDS011;8562;52.246;20.966;2023-04-29T04:35:04;6.47;;;4.33;;
16890;SDS011;8562;52.246;20.966;2023-04-29T04:37:31;11.73;;;5.03;;
16890;SDS011;8562;52.246;20.966;2023-04-29T04:39:58;6.47;;;4.13;;
16890;SDS011;8562;52.246;20.966;2023-04-29T04:42:24;5.67;;;4.50;;
16890;SDS011;8562;52.246;20.966;2023-04-29T04:44:52;6.43;;;4.87;;
16890;SDS011;8562;52.246;20.966;2023-04-29T04:47:28;5.87;;;4.53;;
16890;SDS011;8562;52.246;20.966;2023-04-29T04:49:59;6.83;;;4.37;;
16890;SDS011;8562;52.246;20.966;2023-04-29T04:52:25;7.10;;;4.80;;
16890;SDS011;8562;52.246;20.966;2023-04-29T04:55:15;4.90;;;3.73;;
16890;SDS011;8562;52.246;20.966;2023-04-29T04:57:44;8.33;;;4.57;;
16890;SDS011;8562;52.246;20.966;2023-04-29T05:00:10;7.20;;;3.77;;
16890;SDS011;8562;52.246;20.966;2023-04-29T05:02:36;9.97;;;4.53;;
16890;SDS011;8562;52.246;20.966;2023-04-29T05:05:01;9.60;;;3.93;;
16890;SDS011;8562;52.246;20.966;2023-04-29T05:07:31;9.47;;;4.47;;
16890;SDS011;8562;52.246;20.966;2023-04-29T05:10:02;4.80;;;3.90;;
16890;SDS011;8562;52.246;20.966;2023-04-29T05:12:29;9.80;;;3.80;;
16890;SDS011;8562;52.246;20.966;2023-04-29T05:14:56;6.77;;;3.87;;
16890;SDS011;8562;52.246;20.966;2023-04-29T05:17:23;3.77;;;3.43;;
16890;SDS011;8562;52.246;20.966;2023-04-29T05:19:48;7.07;;;3.90;;
16890;SDS011;8562;52.246;20.966;2023-04-29T05:22:14;5.50;;;4.17;;
16890;SDS011;8562;52.246;20.966;2023-04-29T05:24:39;4.63;;;3.73;;
16890;SDS011;8562;52.246;20.966;2023-04-29T05:27:05;6.93;;;3.80;;
16890;SDS011;8562;52.246;20.966;2023-04-29T05:29:30;4.73;;;3.73;;
16890;SDS011;8562;52.246;20.966;2023-04-29T05:31:58;6.53;;;4.23;;
16890;SDS011;8562;52.246;20.966;2023-04-29T05:34:23;6.33;;;3.87;;
16890;SDS011;8562;52.246;20.966;2023-04-29T05:36:50;5.53;;;3.33;;
16890;SDS011;8562;52.246;20.966;2023-04-29T05:39:16;6.20;;;3.93;;
16890;SDS011;8562;52.246;20.966;2023-04-29T05:41:42;6.63;;;3.90;;
16890;SDS011;8562;52.246;20.966;2023-04-29T05:44:14;6.97;;;4.37;;
16890;SDS011;8562;52.246;20.966;2023-04-29T05:46:39;4.20;;;3.80;;
16890;SDS011;8562;52.246;20.966;2023-04-29T05:49:04;3.87;;;3.10;;
16890;SDS011;8562;52.246;20.966;2023-04-29T05:51:30;3.97;;;3.43;;
16890;SDS011;8562;52.246;20.966;2023-04-29T05:53:56;5.97;;;3.70;;
16890;SDS011;8562;52.246;20.966;2023-04-29T05:56:24;8.57;;;3.73;;
16890;SDS011;8562;52.246;20.966;2023-04-29T05:58:49;4.37;;;3.70;;
16890;SDS011;8562;52.246;20.966;2023-04-29T06:01:16;6.57;;;3.90;;
16890;SDS011;8562;52.246;20.966;2023-04-29T06:03:41;5.00;;;3.87;;
16890;SDS011;8562;52.246;20.966;2023-04-29T06:06:42;4.67;;;3.73;;
16890;SDS011;8562;52.246;20.966;2023-04-29T06:09:15;4.93;;;3.20;;
16890;SDS011;8562;52.246;20.966;2023-04-29T06:11:42;5.10;;;3.80;;
16890;SDS011;8562;52.246;20.966;2023-04-29T06:14:09;4.53;;;3.53;;
16890;SDS011;8562;52.246;20.966;2023-04-29T06:16:35;6.47;;;3.33;;
16890;SDS011;8562;52.246;20.966;2023-04-29T06:19:00;3.97;;;2.90;;
16890;SDS011;8562;52.246;20.966;2023-04-29T06:21:26;5.10;;;3.67;;
16890;SDS011;8562;52.246;20.966;2023-04-29T06:23:55;6.20;;;3.13;;
16890;SDS011;8562;52.246;20.966;2023-04-29T06:26:21;4.03;;;3.63;;
16890;SDS011;8562;52.246;20.966;2023-04-29T06:28:47;4.53;;;3.40;;
16890;SDS011;8562;52.246;20.966;2023-04-29T06:31:14;6.50;;;3.63;;
16890;SDS011;8562;52.246;20.966;2023-04-29T06:33:40;4.53;;;3.37;;
16890;SDS011;8562;52.246;20.966;2023-04-29T06:36:06;7.60;;;3.07;;
16890;SDS011;8562;52.246;20.966;2023-04-29T06:38:50;6.77;;;3.30;;
16890;SDS011;8562;52.246;20.966;2023-04-29T06:41:25;5.80;;;3.13;;
16890;SDS011;8562;52.246;20.966;2023-04-29T06:43:53;6.40;;;3.50;;
16890;SDS011;8562;52.246;20.966;2023-04-29T06:46:49;9.33;;;3.77;;
16890;SDS011;8562;52.246;20.966;2023-04-29T06:49:17;9.30;;;3.07;;
16890;SDS011;8562;52.246;20.966;2023-04-29T06:51:43;4.30;;;3.07;;
16890;SDS011;8562;52.246;20.966;2023-04-29T06:54:08;5.40;;;2.83;;
16890;SDS011;8562;52.246;20.966;2023-04-29T06:56:34;7.90;;;3.30;;
16890;SDS011;8562;52.246;20.966;2023-04-29T06:58:59;5.27;;;3.03;;
16890;SDS011;8562;52.246;20.966;2023-04-29T07:01:24;5.53;;;3.40;;
16890;SDS011;8562;52.246;20.966;2023-04-29T07:03:49;4.20;;;2.70;;
16890;SDS011;8562;52.246;20.966;2023-04-29T07:06:17;6.37;;;3.17;;
16890;SDS011;8562;52.246;20.966;2023-04-29T07:08:43;5.83;;;3.13;;
16890;SDS011;8562;52.246;20.966;2023-04-29T07:11:08;3.57;;;3.27;;
16890;SDS011;8562;52.246;20.966;2023-04-29T07:13:34;4.47;;;3.10;;
16890;SDS011;8562;52.246;20.966;2023-04-29T07:15:59;4.13;;;3.07;;
16890;SDS011;8562;52.246;20.966;2023-04-29T07:18:25;4.83;;;3.27;;
16890;SDS011;8562;52.246;20.966;2023-04-29T07:20:51;4.30;;;2.70;;
16890;SDS011;8562;52.246;20.966;2023-04-29T07:23:17;3.27;;;2.87;;
16890;SDS011;8562;52.246;20.966;2023-04-29T07:25:42;4.77;;;3.10;;
16890;SDS011;8562;52.246;20.966;2023-04-29T07:28:07;4.00;;;2.80;;
16890;SDS011;8562;52.246;20.966;2023-04-29T07:30:33;3.67;;;2.37;;
16890;SDS011;8562;52.246;20.966;2023-04-29T07:32:58;4.77;;;2.87;;
16890;SDS011;8562;52.246;20.966;2023-04-29T07:35:25;5.23;;;3.30;;
16890;SDS011;8562;52.246;20.966;2023-04-29T07:37:50;3.87;;;2.80;;
16890;SDS011;8562;52.246;20.966;2023-04-29T07:40:15;4.43;;;2.67;;
16890;SDS011;8562;52.246;20.966;2023-04-29T07:42:42;3.37;;;2.37;;
16890;SDS011;8562;52.246;20.966;2023-04-29T07:45:08;3.67;;;2.13;;
16890;SDS011;8562;52.246;20.966;2023-04-29T07:47:33;4.50;;;2.43;;
16890;SDS011;8562;52.246;20.966;2023-04-29T07:49:59;5.17;;;2.10;;
16890;SDS011;8562;52.246;20.966;2023-04-29T07:52:24;4.10;;;2.33;;
16890;SDS011;8562;52.246;20.966;2023-04-29T07:54:50;6.97;;;2.13;;
16890;SDS011;8562;52.246;20.966;2023-04-29T07:57:15;4.10;;;2.20;;
16890;SDS011;8562;52.246;20.966;2023-04-29T07:59:40;6.73;;;2.47;;
16890;SDS011;8562;52.246;20.966;2023-04-29T08:02:06;2.73;;;2.30;;
16890;SDS011;8562;52.246;20.966;2023-04-29T08:04:32;3.87;;;2.30;;
16890;SDS011;8562;52.246;20.966;2023-04-29T08:07:02;5.07;;;2.30;;
16890;SDS011;8562;52.246;20.966;2023-04-29T08:09:28;3.20;;;2.37;;
16890;SDS011;8562;52.246;20.966;2023-04-29T08:11:53;5.20;;;2.33;;
16890;SDS011;8562;52.246;20.966;2023-04-29T08:14:18;2.80;;;2.50;;
16890;SDS011;8562;52.246;20.966;2023-04-29T08:16:44;3.20;;;2.50;;
16890;SDS011;8562;52.246;20.966;2023-04-29T08:19:09;3.07;;;2.50;;
16890;SDS011;8562;52.246;20.966;2023-04-29T08:21:35;2.50;;;2.30;;
16890;SDS011;8562;52.246;20.966;2023-04-29T08:24:01;2.40;;;2.03;;
16890;SDS011;8562;52.246;20.966;2023-04-29T08:26:26;5.70;;;2.40;;
16890;SDS011;8562;52.246;20.966;2023-04-29T08:28:52;3.27;;;2.13;;
16890;SDS011;8562;52.246;20.966;2023-04-29T08:31:17;2.40;;;2.00;;
16890;SDS011;8562;52.246;20.966;2023-04-29T08:33:43;3.77;;;2.60;;
16890;SDS011;8562;52.246;20.966;2023-04-29T08:36:08;2.53;;;2.10;;
16890;SDS011;8562;52.246;20.966;2023-04-29T08:38:34;7.30;;;2.27;;
16890;SDS011;8562;52.246;20.966;2023-04-29T08:40:59;3.40;;;2.30;;
16890;SDS011;8562;52.246;20.966;2023-04-29T08:43:25;5.53;;;2.53;;
16890;SDS011;8562;52.246;20.966;2023-04-29T08:45:50;3.10;;;2.23;;
16890;SDS011;8562;52.246;20.966;2023-04-29T08:48:16;4.23;;;1.87;;
16890;SDS011;8562;52.246;20.966;2023-04-29T08:50:42;2.70;;;2.47;;
16890;SDS011;8562;52.246;20.966;2023-04-29T08:53:08;3.20;;;2.37;;
16890;SDS011;8562;52.246;20.966;2023-04-29T08:56:07;5.13;;;2.30;;
16890;SDS011;8562;52.246;20.966;2023-04-29T08:58:25;3.80;;;2.30;;
16890;SDS011;8562;52.246;20.966;2023-04-29T09:00:52;5.40;;;2.40;;
16890;SDS011;8562;52.246;20.966;2023-04-29T09:03:25;5.13;;;3.00;;
16890;SDS011;8562;52.246;20.966;2023-04-29T09:05:54;3.13;;;2.23;;
16890;SDS011;8562;52.246;20.966;2023-04-29T09:08:20;3.27;;;2.40;;
16890;SDS011;8562;52.246;20.966;2023-04-29T09:10:46;4.33;;;2.63;;
16890;SDS011;8562;52.246;20.966;2023-04-29T09:13:22;2.73;;;2.37;;
16890;SDS011;8562;52.246;20.966;2023-04-29T09:15:48;5.83;;;2.57;;
16890;SDS011;8562;52.246;20.966;2023-04-29T09:18:39;2.47;;;2.27;;
16890;SDS011;8562;52.246;20.966;2023-04-29T09:20:58;4.90;;;2.47;;
16890;SDS011;8562;52.246;20.966;2023-04-29T09:23:35;3.33;;;2.60;;
16890;SDS011;8562;52.246;20.966;2023-04-29T09:26:01;4.93;;;2.40;;
16890;SDS011;8562;52.246;20.966;2023-04-29T09:28:26;4.20;;;2.67;;
16890;SDS011;8562;52.246;20.966;2023-04-29T09:30:52;3.63;;;2.60;;
16890;SDS011;8562;52.246;20.966;2023-04-29T09:33:17;3.80;;;2.93;;
16890;SDS011;8562;52.246;20.966;2023-04-29T09:35:42;6.13;;;2.40;;
16890;SDS011;8562;52.246;20.966;2023-04-29T09:40:33;3.70;;;2.73;;
16890;SDS011;8562;52.246;20.966;2023-04-29T09:43:00;4.13;;;2.77;;
16890;SDS011;8562;52.246;20.966;2023-04-29T09:45:32;4.67;;;2.87;;
16890;SDS011;8562;52.246;20.966;2023-04-29T09:48:02;3.27;;;2.40;;
16890;SDS011;8562;52.246;20.966;2023-04-29T09:50:28;3.73;;;3.30;;
16890;SDS011;8562;52.246;20.966;2023-04-29T09:52:53;5.57;;;2.50;;
16890;SDS011;8562;52.246;20.966;2023-04-29T09:55:18;3.10;;;2.43;;
16890;SDS011;8562;52.246;20.966;2023-04-29T09:57:44;7.57;;;2.93;;
16890;SDS011;8562;52.246;20.966;2023-04-29T10:00:10;4.53;;;2.80;;
16890;SDS011;8562;52.246;20.966;2023-04-29T10:02:39;2.63;;;2.40;;
16890;SDS011;8562;52.246;20.966;2023-04-29T10:05:05;4.60;;;2.63;;
16890;SDS011;8562;52.246;20.966;2023-04-29T10:07:31;3.27;;;2.60;;
16890;SDS011;8562;52.246;20.966;2023-04-29T10:09:57;4.43;;;2.00;;
16890;SDS011;8562;52.246;20.966;2023-04-29T10:12:22;6.07;;;2.60;;
16890;SDS011;8562;52.246;20.966;2023-04-29T10:15:01;3.23;;;2.50;;
16890;SDS011;8562;52.246;20.966;2023-04-29T10:19:57;3.53;;;2.67;;
16890;SDS011;8562;52.246;20.966;2023-04-29T10:22:26;3.93;;;2.60;;
16890;SDS011;8562;52.246;20.966;2023-04-29T10:24:53;4.23;;;2.27;;
16890;SDS011;8562;52.246;20.966;2023-04-29T10:27:19;2.90;;;2.37;;
16890;SDS011;8562;52.246;20.966;2023-04-29T10:29:45;2.40;;;2.20;;
16890;SDS011;8562;52.246;20.966;2023-04-29T10:32:11;8.57;;;3.10;;
16890;SDS011;8562;52.246;20.966;2023-04-29T10:34:38;13.23;;;2.80;;
16890;SDS011;8562;52.246;20.966;2023-04-29T10:37:09;17.47;;;3.60;;
16890;SDS011;8562;52.246;20.966;2023-04-29T10:39:39;9.13;;;3.10;;
16890;SDS011;8562;52.246;20.966;2023-04-29T10:42:13;7.07;;;2.70;;
16890;SDS011;8562;52.246;20.966;2023-04-29T10:45:15;2.63;;;2.37;;
16890;SDS011;8562;52.246;20.966;2023-04-29T10:47:25;5.30;;;2.93;;
16890;SDS011;8562;52.246;20.966;2023-04-29T10:50:01;8.90;;;2.90;;
16890;SDS011;8562;52.246;20.966;2023-04-29T10:52:28;6.73;;;2.40;;
16890;SDS011;8562;52.246;20.966;2023-04-29T10:55:02;13.03;;;3.40;;
16890;SDS011;8562;52.246;20.966;2023-04-29T10:57:28;3.20;;;2.23;;
16890;SDS011;8562;52.246;20.966;2023-04-29T10:59:54;2.30;;;2.00;;
16890;SDS011;8562;52.246;20.966;2023-04-29T13:35:04;3.60;;;2.80;;
16890;SDS011;8562;52.246;20.966;2023-04-29T13:37:29;4.23;;;2.67;;
16890;SDS011;8562;52.246;20.966;2023-04-29T13:39:54;31.40;;;7.10;;
16890;SDS011;8562;52.246;20.966;2023-04-29T13:42:20;5.67;;;2.93;;
16890;SDS011;8562;52.246;20.966;2023-04-29T13:44:45;2.97;;;2.43;;
16890;SDS011;8562;52.246;20.966;2023-04-29T13:47:11;3.53;;;3.13;;
16890;SDS011;8562;52.246;20.966;2023-04-29T13:49:37;4.73;;;2.90;;
16890;SDS011;8562;52.246;20.966;2023-04-29T13:52:02;3.13;;;2.77;;
16890;SDS011;8562;52.246;20.966;2023-04-29T13:54:27;4.03;;;2.57;;
16890;SDS011;8562;52.246;20.966;2023-04-29T13:56:53;2.93;;;2.37;;
16890;SDS011;8562;52.246;20.966;2023-04-29T13:59:18;4.80;;;3.13;;
16890;SDS011;8562;52.246;20.966;2023-04-29T14:01:43;5.57;;;2.60;;
16890;SDS011;8562;52.246;20.966;2023-04-29T14:04:10;5.03;;;2.40;;
16890;SDS011;8562;52.246;20.966;2023-04-29T14:06:35;7.17;;;2.60;;
16890;SDS011;8562;52.246;20.966;2023-04-29T14:09:00;3.10;;;2.40;;
16890;SDS011;8562;52.246;20.966;2023-04-29T14:11:26;3.37;;;2.90;;
16890;SDS011;8562;52.246;20.966;2023-04-29T14:13:51;3.07;;;2.80;;
16890;SDS011;8562;52.246;20.966;2023-04-29T14:16:16;3.17;;;2.87;;
16890;SDS011;8562;52.246;20.966;2023-04-29T14:18:42;4.83;;;2.67;;
16890;SDS011;8562;52.246;20.966;2023-04-29T14:21:07;3.20;;;2.70;;
16890;SDS011;8562;52.246;20.966;2023-04-29T14:23:32;4.03;;;2.43;;
16890;SDS011;8562;52.246;20.966;2023-04-29T14:25:58;3.97;;;2.83;;
16890;SDS011;8562;52.246;20.966;2023-04-29T14:28:23;5.50;;;2.60;;
16890;SDS011;8562;52.246;20.966;2023-04-29T14:30:48;2.60;;;2.40;;
16890;SDS011;8562;52.246;20.966;2023-04-29T14:33:14;3.73;;;2.77;;
16890;SDS011;8562;52.246;20.966;2023-04-29T14:35:39;3.30;;;2.00;;
16890;SDS011;8562;52.246;20.966;2023-04-29T14:38:05;4.77;;;2.80;;
16890;SDS011;8562;52.246;20.966;2023-04-29T14:40:30;3.00;;;2.70;;
16890;SDS011;8562;52.246;20.966;2023-04-29T14:42:55;3.50;;;2.70;;
16890;SDS011;8562;52.246;20.966;2023-04-29T14:45:21;4.00;;;2.73;;
16890;SDS011;8562;52.246;20.966;2023-04-29T14:47:46;5.10;;;2.47;;
16890;SDS011;8562;52.246;20.966;2023-04-29T14:50:12;3.60;;;3.10;;
16890;SDS011;8562;52.246;20.966;2023-04-29T14:52:37;4.67;;;2.80;;
16890;SDS011;8562;52.246;20.966;2023-04-29T14:55:02;3.27;;;2.70;;
16890;SDS011;8562;52.246;20.966;2023-04-29T14:57:28;3.63;;;2.57;;
16890;SDS011;8562;52.246;20.966;2023-04-29T14:59:54;4.23;;;2.70;;
16890;SDS011;8562;52.246;20.966;2023-04-29T15:02:19;7.87;;;2.87;;
16890;SDS011;8562;52.246;20.966;2023-04-29T15:04:45;4.30;;;3.03;;
16890;SDS011;8562;52.246;20.966;2023-04-29T15:07:14;3.07;;;2.40;;
16890;SDS011;8562;52.246;20.966;2023-04-29T15:09:39;4.33;;;2.50;;
16890;SDS011;8562;52.246;20.966;2023-04-29T15:12:05;4.50;;;2.60;;
16890;SDS011;8562;52.246;20.966;2023-04-29T15:14:30;5.30;;;2.73;;
16890;SDS011;8562;52.246;20.966;2023-04-29T15:16:56;5.20;;;3.00;;
16890;SDS011;8562;52.246;20.966;2023-04-29T15:19:21;3.30;;;2.70;;
16890;SDS011;8562;52.246;20.966;2023-04-29T15:21:49;3.67;;;2.87;;
16890;SDS011;8562;52.246;20.966;2023-04-29T15:24:14;5.17;;;3.47;;
16890;SDS011;8562;52.246;20.966;2023-04-29T15:26:39;3.50;;;2.83;;
16890;SDS011;8562;52.246;20.966;2023-04-29T15:29:05;3.40;;;2.83;;
16890;SDS011;8562;52.246;20.966;2023-04-29T15:31:30;5.63;;;3.20;;
16890;SDS011;8562;52.246;20.966;2023-04-29T15:33:56;3.83;;;2.67;;
16890;SDS011;8562;52.246;20.966;2023-04-29T15:36:28;2.97;;;2.77;;
16890;SDS011;8562;52.246;20.966;2023-04-29T15:38:54;3.70;;;2.90;;
16890;SDS011;8562;52.246;20.966;2023-04-29T15:41:19;4.90;;;2.73;;
16890;SDS011;8562;52.246;20.966;2023-04-29T15:43:45;3.37;;;2.70;;
16890;SDS011;8562;52.246;20.966;2023-04-29T15:46:11;3.80;;;3.40;;
16890;SDS011;8562;52.246;20.966;2023-04-29T15:48:36;3.77;;;2.37;;
16890;SDS011;8562;52.246;20.966;2023-04-29T15:51:01;5.77;;;3.27;;
16890;SDS011;8562;52.246;20.966;2023-04-29T15:53:27;4.20;;;3.00;;
16890;SDS011;8562;52.246;20.966;2023-04-29T15:55:52;6.00;;;2.80;;
16890;SDS011;8562;52.246;20.966;2023-04-29T15:58:18;5.03;;;2.80;;
16890;SDS011;8562;52.246;20.966;2023-04-29T16:00:43;4.60;;;2.23;;
16890;SDS011;8562;52.246;20.966;2023-04-29T16:03:09;5.63;;;3.57;;
16890;SDS011;8562;52.246;20.966;2023-04-29T16:05:34;6.37;;;2.67;;
16890;SDS011;8562;52.246;20.966;2023-04-29T16:08:01;3.30;;;2.20;;
16890;SDS011;8562;52.246;20.966;2023-04-29T16:10:26;5.07;;;3.97;;
16890;SDS011;8562;52.246;20.966;2023-04-29T16:12:51;6.47;;;3.17;;
16890;SDS011;8562;52.246;20.966;2023-04-29T16:15:16;2.87;;;2.53;;
16890;SDS011;8562;52.246;20.966;2023-04-29T16:17:42;3.47;;;3.17;;
16890;SDS011;8562;52.246;20.966;2023-04-29T16:20:08;2.80;;;2.33;;
16890;SDS011;8562;52.246;20.966;2023-04-29T16:22:33;4.10;;;2.30;;
16890;SDS011;8562;52.246;20.966;2023-04-29T16:24:58;5.57;;;2.97;;
16890;SDS011;8562;52.246;20.966;2023-04-29T16:27:24;4.47;;;3.13;;
16890;SDS011;8562;52.246;20.966;2023-04-29T16:29:49;3.50;;;2.80;;
16890;SDS011;8562;52.246;20.966;2023-04-29T16:32:14;3.53;;;2.70;;
16890;SDS011;8562;52.246;20.966;2023-04-29T16:34:40;5.60;;;3.00;;
16890;SDS011;8562;52.246;20.966;2023-04-29T16:37:05;5.17;;;3.17;;
16890;SDS011;8562;52.246;20.966;2023-04-29T16:39:36;3.37;;;2.67;;
16890;SDS011;8562;52.246;20.966;2023-04-29T16:42:01;3.37;;;2.80;;
16890;SDS011;8562;52.246;20.966;2023-04-29T16:44:27;4.57;;;2.90;;
16890;SDS011;8562;52.246;20.966;2023-04-29T16:46:52;4.23;;;3.13;;
16890;SDS011;8562;52.246;20.966;2023-04-29T16:49:18;5.43;;;3.10;;
16890;SDS011;8562;52.246;20.966;2023-04-29T16:51:45;6.77;;;2.70;;
16890;SDS011;8562;52.246;20.966;2023-04-29T16:54:10;5.50;;;2.97;;
16890;SDS011;8562;52.246;20.966;2023-04-29T16:56:36;6.60;;;3.23;;
16890;SDS011;8562;52.246;20.966;2023-04-29T16:59:01;2.97;;;2.53;;
16890;SDS011;8562;52.246;20.966;2023-04-29T17:01:27;3.30;;;2.80;;
16890;SDS011;8562;52.246;20.966;2023-04-29T17:03:52;6.30;;;3.03;;
16890;SDS011;8562;52.246;20.966;2023-04-29T17:06:19;3.20;;;2.90;;
16890;SDS011;8562;52.246;20.966;2023-04-29T17:08:44;6.07;;;2.97;;
16890;SDS011;8562;52.246;20.966;2023-04-29T17:11:09;5.47;;;2.97;;
16890;SDS011;8562;52.246;20.966;2023-04-29T17:13:34;3.67;;;3.10;;
16890;SDS011;8562;52.246;20.966;2023-04-29T17:16:00;6.53;;;3.10;;
16890;SDS011;8562;52.246;20.966;2023-04-29T17:18:25;6.43;;;3.57;;
16890;SDS011;8562;52.246;20.966;2023-04-29T17:20:51;4.53;;;2.80;;
16890;SDS011;8562;52.246;20.966;2023-04-29T17:23:16;4.77;;;3.03;;
16890;SDS011;8562;52.246;20.966;2023-04-29T17:25:41;2.63;;;2.30;;
16890;SDS011;8562;52.246;20.966;2023-04-29T17:28:06;4.77;;;2.87;;
16890;SDS011;8562;52.246;20.966;2023-04-29T17:30:32;5.90;;;3.53;;
16890;SDS011;8562;52.246;20.966;2023-04-29T17:32:58;6.50;;;3.37;;
16890;SDS011;8562;52.246;20.966;2023-04-29T17:35:29;4.80;;;3.10;;